Página principal
METAR-TAF:

METAR-TAF

Aeroportos :

Lançarote, Espanha

latitude: 28-57N, longitude: 013-36W, altura: 14 m

Observação actual do tempo

O boletim foi feito há 25 minutos, às 10:30 UTC
Vento 15 kt de norte, variando entre noroeste e nor-nordeste
Temperatura 26°C
Humidade 61%
Pressão 1015 hPa
Visibilidade 10 km ou mais
Poucas nuvensa uma altura de 2000 ft

METAR: GCRR 191030Z 36015KT 320V020 9999 FEW020 26/18 Q1015

Hora: 11:55 (10:55 UTC)

Previsão

O boletim foi feito há 2 horas e 55 minutos, às 08:00 UTC
Previsão válida de 19 às 09 UTC a 20 às 09 UTC
Vento 15 kt de norte
Visibilidade 10 km ou mais
Poucas nuvensa uma altura de 2500 ft
Probabilidade 30% :
Temporariamente
de 19 às 13 UTC a 19 às 16 UTC
Vento 12 kt de es-nordeste
Probabilidade 40% :
Temporariamente
de 19 às 16 UTC a 19 às 21 UTC
Vento 15 kt de norte com rajadas de 25 kt

TAF: GCRR 190800Z 1909/2009 01015KT 9999 FEW025 TX29/1914Z TN22/2006Z PROB30 TEMPO 1913/1916 07012KT PROB40 TEMPO 1916/1921 35015G25KT

Observações e previsões do tempo de mais de 4000 aeroportos (mensagens METAR e TAF).

As estações disponíveis são os pontos amarelos e vermelhos sobre o mapa.

Mova o rato sobre o mapa para ver o nome da estação.

Depois clique no ponto para visualizar as observações e previsões meteorológicas.

Para alterar o mapa : clique nos botões verdes com uma cruz preta para aumentar o zoom; no botão verde com uma pitada de zoom; ou nas setas verdes para mapas adjacentes.


METAR-TAF: